Time;durP1;ratioP1;P1;durP2;ratioP2;P2;SDS_P1;SDS_P2;PMS_P1;PMS_P2;Temp;Humidity;BMP_temperature;BMP_pressure;BME280_temperature;BME280_humidity;BME280_pressure;Samples;Min_cycle;Max_cycle;Signal;HPM_P1;HPM_P2
2022/10/17 00:01:10;;;;;;;1.27;0.90;;;13.30;99.90;13.30;101231.00;;;;4953391;28;114168;-63
2022/10/17 00:03:37;;;;;;;2.57;1.33;;;13.30;99.90;13.30;101234.00;;;;4949100;28;112319;-63
2022/10/17 00:06:13;;;;;;;2.47;1.67;;;13.30;99.90;13.30;101231.00;;;;4953780;28;92994;-63
2022/10/17 00:08:42;;;;;;;1.20;1.10;;;13.30;99.90;13.20;101233.00;;;;4949174;28;93771;-63
2022/10/17 00:11:17;;;;;;;2.30;1.10;;;13.20;99.90;13.20;101240.00;;;;4945603;28;93763;-63
2022/10/17 00:13:44;;;;;;;1.50;1.40;;;13.20;99.90;13.10;101238.00;;;;4951932;28;93066;-63
2022/10/17 00:16:10;;;;;;;2.47;1.30;;;13.10;99.90;13.10;101234.00;;;;4952510;28;93028;-63
2022/10/17 00:18:36;;;;;;;7.50;1.80;;;13.40;99.90;13.00;101222.00;;;;4949892;28;94802;-63
2022/10/17 00:21:02;;;;;;;1.07;0.97;;;13.00;99.90;13.00;101235.00;;;;4952446;28;93344;-63
2022/10/17 00:23:29;;;;;;;0.87;0.87;;;13.00;99.90;12.90;101234.00;;;;4951387;28;93681;-63
2022/10/17 00:26:04;;;;;;;1.17;0.87;;;12.90;99.90;12.90;101241.00;;;;4948909;28;92123;-63
2022/10/17 00:28:31;;;;;;;3.03;1.83;;;12.90;99.90;12.80;101239.00;;;;4944017;28;92845;-63
2022/10/17 00:31:00;;;;;;;1.97;1.43;;;12.80;99.90;12.80;101243.00;;;;4946794;28;92978;-63
2022/10/17 00:33:27;;;;;;;3.70;1.63;;;12.80;99.90;12.70;101237.00;;;;4959785;28;113841;-64
2022/10/17 00:36:12;;;;;;;1.37;1.13;;;12.70;99.90;12.60;101240.00;;;;4952541;28;109735;-63
2022/10/17 00:38:43;;;;;;;1.97;1.60;;;12.70;99.90;12.60;101234.00;;;;4947084;28;92801;-63
2022/10/17 00:41:11;;;;;;;1.40;1.30;;;12.60;99.90;12.50;101241.00;;;;4948778;28;113269;-63
2022/10/17 00:44:02;;;;;;;3.03;1.33;;;12.60;99.90;12.50;101234.00;;;;4950564;28;116827;-63
2022/10/17 00:46:35;;;;;;;1.23;1.00;;;12.50;99.90;12.40;101229.00;;;;4947744;28;92927;-63
2022/10/17 00:49:06;;;;;;;1.27;1.20;;;12.50;99.90;12.40;101219.00;;;;4952060;28;92869;-64
2022/10/17 00:51:47;;;;;;;1.23;1.13;;;12.40;99.90;12.30;101221.00;;;;4948577;28;92737;-63
2022/10/17 00:54:15;;;;;;;1.10;1.00;;;12.30;99.90;12.30;101238.00;;;;4965983;28;113486;-63
2022/10/17 00:56:42;;;;;;;1.60;1.10;;;12.30;99.90;12.20;101231.00;;;;4953400;28;93252;-63
2022/10/17 00:59:11;;;;;;;1.30;1.20;;;12.30;99.90;12.20;101238.00;;;;4947032;28;93949;-63
2022/10/17 01:01:39;;;;;;;1.37;1.13;;;12.20;99.90;12.20;101234.00;;;;4951173;28;93527;-63
2022/10/17 01:04:04;;;;;;;1.43;1.10;;;12.20;99.90;12.10;101237.00;;;;4951555;28;112703;-63
2022/10/17 01:06:30;;;;;;;1.63;1.00;;;12.20;99.90;12.10;101231.00;;;;4949759;28;111061;-63
2022/10/17 01:08:56;;;;;;;1.30;1.10;;;12.10;99.90;12.10;101228.00;;;;4945722;28;109022;-64
2022/10/17 01:11:46;;;;;;;1.33;1.00;;;12.10;99.90;12.00;101238.00;;;;4951675;28;121794;-64
2022/10/17 01:15:30;;;;;;;6.33;1.23;;;12.10;99.90;11.90;101240.00;;;;4947796;28;109943;-63
2022/10/17 01:18:37;;;;;;;0.70;0.70;;;12.00;99.90;11.90;101244.00;;;;4909950;28;92222;-63
2022/10/17 01:21:24;;;;;;;1.43;1.03;;;12.00;99.90;11.90;101239.00;;;;4894120;28;101902;-63
2022/10/17 01:24:37;;;;;;;1.77;1.23;;;11.90;99.90;11.80;101236.00;;;;4942540;28;104548;-63
2022/10/17 01:27:19;;;;;;;1.20;1.10;;;12.00;99.90;11.80;101236.00;;;;4947656;28;93873;-63
2022/10/17 01:30:15;;;;;;;0.90;0.80;;;11.90;99.90;11.80;101235.00;;;;4952633;28;93092;-63
2022/10/17 01:33:12;;;;;;;1.03;0.93;;;11.90;99.90;11.80;101234.00;;;;4951206;28;93395;-63
2022/10/17 01:35:55;;;;;;;1.43;1.23;;;11.80;99.90;11.70;101232.00;;;;4945363;28;93803;-63
2022/10/17 01:38:43;;;;;;;1.80;1.30;;;11.80;99.90;11.70;101240.00;;;;4963919;28;107538;-63
2022/10/17 01:41:42;;;;;;;1.50;1.07;;;11.80;99.90;11.60;101232.00;;;;4964254;28;92946;-63
2022/10/17 01:44:18;;;;;;;1.27;1.07;;;11.70;99.90;11.60;101227.00;;;;4951310;28;93025;-64
2022/10/17 01:46:50;;;;;;;1.03;0.90;;;11.70;99.90;11.60;101238.00;;;;4947821;28;93413;-63
2022/10/17 01:49:22;;;;;;;0.77;0.73;;;11.70;99.90;11.60;101239.00;;;;4963425;28;92787;-63
2022/10/17 01:51:54;;;;;;;1.23;0.90;;;11.60;99.90;11.50;101219.00;;;;4952382;28;92956;-63
2022/10/17 01:54:23;;;;;;;1.27;1.03;;;11.60;99.90;11.50;101216.00;;;;4963390;28;100987;-63
2022/10/17 01:56:55;;;;;;;0.80;0.60;;;11.60;99.90;11.50;101202.00;;;;4948232;28;93812;-63
2022/10/17 01:59:26;;;;;;;0.90;0.87;;;11.60;99.90;11.50;101213.00;;;;4950786;28;95087;-63
2022/10/17 02:01:54;;;;;;;0.70;0.70;;;11.50;99.90;11.40;101207.00;;;;4963830;28;93121;-63
2022/10/17 02:04:20;;;;;;;1.37;0.87;;;11.50;99.90;11.40;101205.00;;;;4945879;28;101943;-63
2022/10/17 02:06:46;;;;;;;1.73;1.47;;;11.40;99.90;11.40;101202.00;;;;4937964;28;122782;-63
2022/10/17 02:09:23;;;;;;;1.10;0.93;;;11.40;99.90;11.40;101208.00;;;;4940534;28;123542;-63
2022/10/17 02:12:30;;;;;;;2.13;1.10;;;11.40;99.90;11.30;101210.00;;;;4944872;28;99691;-63
2022/10/17 02:15:18;;;;;;;1.50;0.90;;;11.40;99.90;11.30;101206.00;;;;4951286;28;92842;-63
2022/10/17 02:18:21;;;;;;;0.83;0.83;;;11.40;99.90;11.30;101205.00;;;;4950798;28;93917;-63
2022/10/17 02:21:06;;;;;;;0.90;0.83;;;11.40;99.90;11.30;101203.00;;;;4946610;28;116106;-63
2022/10/17 02:23:56;;;;;;;1.00;0.97;;;11.30;99.90;11.30;101205.00;;;;4951473;28;92655;-63
2022/10/17 02:26:44;;;;;;;2.10;1.33;;;11.30;99.90;11.20;101213.00;;;;4946920;28;93799;-63
2022/10/17 02:29:18;;;;;;;0.97;0.87;;;11.30;99.90;11.20;101206.00;;;;4943006;28;105129;-64
2022/10/17 02:32:06;;;;;;;0.93;0.90;;;11.30;99.90;11.20;101212.00;;;;4948394;28;106422;-63
2022/10/17 02:34:41;;;;;;;0.90;0.90;;;11.30;99.90;11.20;101215.00;;;;4945633;28;92906;-64
2022/10/17 02:37:10;;;;;;;1.63;1.43;;;11.20;99.90;11.20;101216.00;;;;4948260;28;104097;-64
2022/10/17 02:39:38;;;;;;;1.20;1.10;;;11.20;99.90;11.20;101210.00;;;;4963895;28;93235;-64
2022/10/17 02:42:08;;;;;;;1.00;1.00;;;11.20;99.90;11.10;101211.00;;;;4949998;28;122335;-64
2022/10/17 02:44:36;;;;;;;1.60;1.50;;;11.20;99.90;11.10;101199.00;;;;4949293;28;94763;-63
2022/10/17 02:47:22;;;;;;;1.63;1.07;;;11.20;99.90;11.00;101202.00;;;;4948385;28;93789;-63
2022/10/17 02:49:52;;;;;;;1.63;1.43;;;11.10;99.90;11.00;101197.00;;;;4950660;28;93675;-63
2022/10/17 02:52:44;;;;;;;1.43;1.17;;;10.90;99.90;11.00;101203.00;;;;4947678;28;93125;-64
2022/10/17 02:55:14;;;;;;;1.00;0.77;;;11.10;99.90;11.00;101196.00;;;;4949581;28;105066;-63
2022/10/17 02:57:46;;;;;;;1.27;0.80;;;11.00;99.90;11.00;101193.00;;;;4948794;28;109207;-64
2022/10/17 03:00:14;;;;;;;1.20;1.10;;;11.00;99.90;11.00;101203.00;;;;4964052;28;116940;-63
2022/10/17 03:02:46;;;;;;;5.37;1.40;;;11.00;99.90;10.90;101205.00;;;;4943154;28;103501;-63
2022/10/17 03:05:19;;;;;;;1.73;1.20;;;11.00;99.90;10.90;101204.00;;;;4951322;28;92096;-63
2022/10/17 03:07:45;;;;;;;1.70;0.83;;;11.00;99.90;10.90;101201.00;;;;4947674;28;92813;-64
2022/10/17 03:10:10;;;;;;;2.47;0.93;;;10.90;99.90;10.90;101208.00;;;;4946455;28;93830;-63
2022/10/17 03:12:36;;;;;;;1.40;1.10;;;11.00;99.90;10.90;101209.00;;;;4949454;28;119816;-63
2022/10/17 03:15:03;;;;;;;0.73;0.73;;;10.90;99.90;10.90;101205.00;;;;4947467;28;110632;-63
2022/10/17 03:17:29;;;;;;;3.40;1.57;;;10.90;99.90;10.90;101205.00;;;;4944419;28;93269;-64
2022/10/17 03:19:55;;;;;;;2.80;0.87;;;10.90;99.90;10.80;101212.00;;;;4949198;28;113320;-64
2022/10/17 03:22:20;;;;;;;1.13;0.90;;;10.90;99.90;10.80;101214.00;;;;4945810;28;122697;-64
2022/10/17 03:24:46;;;;;;;4.47;1.40;;;10.90;99.90;10.80;101211.00;;;;4939944;28;110753;-63
2022/10/17 03:27:12;;;;;;;1.60;1.07;;;10.90;99.90;10.80;101212.00;;;;4944764;28;108415;-63
2022/10/17 03:29:37;;;;;;;2.27;1.33;;;10.90;99.90;10.80;101210.00;;;;4940038;28;122083;-63
2022/10/17 03:32:03;;;;;;;1.27;1.17;;;10.90;99.90;10.80;101214.00;;;;4961487;28;122448;-64
2022/10/17 03:34:29;;;;;;;1.40;1.30;;;10.80;99.90;10.80;101214.00;;;;4955683;28;92798;-64
2022/10/17 03:36:55;;;;;;;1.37;1.27;;;10.80;99.90;10.80;101211.00;;;;4949555;28;108852;-63
2022/10/17 03:39:21;;;;;;;2.63;1.37;;;10.80;99.90;10.80;101212.00;;;;4949903;28;121154;-63
2022/10/17 03:41:46;;;;;;;2.47;0.97;;;10.80;99.90;10.70;101217.00;;;;4952668;28;123391;-63
2022/10/17 03:44:12;;;;;;;3.27;1.33;;;10.80;99.90;10.70;101209.00;;;;4948044;28;110868;-63
2022/10/17 03:46:38;;;;;;;1.33;0.93;;;10.60;99.90;10.70;101212.00;;;;4947021;28;99742;-63
2022/10/17 03:49:03;;;;;;;1.50;1.33;;;10.80;99.90;10.70;101217.00;;;;4947934;28;122808;-63
2022/10/17 03:51:31;;;;;;;1.37;0.80;;;10.80;99.90;10.70;101219.00;;;;4942396;28;120779;-64
2022/10/17 03:53:57;;;;;;;1.17;1.17;;;10.80;99.90;10.70;101222.00;;;;4953233;28;92329;-64
2022/10/17 03:56:24;;;;;;;1.30;1.20;;;10.70;99.90;10.70;101217.00;;;;4953249;28;109723;-64
2022/10/17 03:58:50;;;;;;;1.10;0.90;;;10.70;99.90;10.70;101218.00;;;;4948246;28;93210;-64
2022/10/17 04:01:17;;;;;;;1.70;1.23;;;10.70;99.90;10.60;101220.00;;;;4950230;28;122329;-64
2022/10/17 04:03:47;;;;;;;1.50;1.30;;;10.70;99.90;10.70;101218.00;;;;4951037;28;92923;-64
2022/10/17 04:06:12;;;;;;;1.97;1.33;;;10.70;99.90;10.60;101213.00;;;;4948527;28;92944;-64
2022/10/17 04:08:38;;;;;;;2.97;1.67;;;10.70;99.90;10.60;101211.00;;;;4939579;28;122583;-64
2022/10/17 04:11:07;;;;;;;1.90;1.40;;;10.70;99.90;10.60;101211.00;;;;4945770;28;92925;-64
2022/10/17 04:13:34;;;;;;;1.13;0.93;;;10.70;99.90;10.60;101218.00;;;;4946835;28;92938;-64
2022/10/17 04:16:11;;;;;;;0.80;0.80;;;10.70;99.90;10.60;101219.00;;;;4950811;28;92794;-64
2022/10/17 04:18:37;;;;;;;0.90;0.90;;;10.70;99.90;10.60;101221.00;;;;4952198;28;99149;-64
2022/10/17 04:21:04;;;;;;;2.10;1.67;;;10.60;99.90;10.60;101217.00;;;;4952250;28;121617;-64
2022/10/17 04:23:30;;;;;;;2.93;1.33;;;10.70;99.90;10.50;101212.00;;;;4950736;28;93127;-64
2022/10/17 04:25:57;;;;;;;1.17;1.07;;;10.60;99.90;10.50;101225.00;;;;4943525;28;94012;-64
2022/10/17 04:28:24;;;;;;;1.33;1.07;;;10.60;99.90;10.50;101217.00;;;;4946925;28;98920;-64
2022/10/17 04:31:06;;;;;;;2.17;1.63;;;10.80;99.90;10.40;101221.00;;;;4951024;28;97794;-64
2022/10/17 04:33:33;;;;;;;1.70;1.30;;;10.50;99.90;10.50;101226.00;;;;4944703;28;92843;-64
2022/10/17 04:36:01;;;;;;;1.03;0.80;;;10.50;99.90;10.40;101213.00;;;;4946022;28;100992;-64
2022/10/17 04:38:28;;;;;;;1.57;1.10;;;10.50;99.90;10.40;101219.00;;;;4953410;28;105936;-64
2022/10/17 04:41:02;;;;;;;2.30;1.47;;;10.50;99.90;10.40;101223.00;;;;4948676;28;93903;-64
2022/10/17 04:43:29;;;;;;;1.47;1.37;;;10.50;99.90;10.40;101222.00;;;;4948977;28;92058;-64
2022/10/17 04:45:57;;;;;;;1.23;1.13;;;10.50;99.90;10.40;101215.00;;;;4953402;28;98088;-64
2022/10/17 04:48:23;;;;;;;1.97;1.77;;;10.50;99.90;10.40;101224.00;;;;4948287;28;93995;-64
2022/10/17 04:51:05;;;;;;;1.13;0.77;;;10.50;99.90;10.30;101212.00;;;;4945404;28;122433;-64
2022/10/17 04:53:33;;;;;;;1.83;1.70;;;10.40;99.90;10.30;101210.00;;;;4953661;28;102509;-64
2022/10/17 04:55:59;;;;;;;1.23;1.10;;;10.40;99.90;10.30;101218.00;;;;4946313;28;92706;-64
2022/10/17 04:58:27;;;;;;;1.60;1.50;;;10.40;99.90;10.30;101217.00;;;;4949617;28;121417;-64
2022/10/17 05:00:53;;;;;;;2.73;1.30;;;10.40;99.90;10.30;101212.00;;;;4950917;28;107770;-64
2022/10/17 05:03:19;;;;;;;3.63;1.10;;;10.40;99.90;10.20;101204.00;;;;4942920;28;110264;-62
2022/10/17 05:05:44;;;;;;;1.33;1.17;;;10.30;99.90;10.20;101215.00;;;;4948008;28;108722;-64
2022/10/17 05:08:11;;;;;;;1.83;1.70;;;10.30;99.90;10.20;101208.00;;;;4947845;28;122187;-64
2022/10/17 05:10:43;;;;;;;2.63;1.53;;;10.30;99.90;10.20;101214.00;;;;4948814;28;93002;-64
2022/10/17 05:13:09;;;;;;;3.73;1.77;;;10.30;99.90;10.20;101208.00;;;;4952473;28;92829;-64
2022/10/17 05:15:35;;;;;;;2.10;1.90;;;10.30;99.90;10.20;101219.00;;;;4953146;28;99115;-64
2022/10/17 05:18:02;;;;;;;2.83;1.27;;;10.30;99.90;10.20;101225.00;;;;4945875;28;93540;-64
2022/10/17 05:20:27;;;;;;;2.73;1.97;;;10.20;99.90;10.20;101219.00;;;;4962388;28;98895;-64
2022/10/17 05:22:53;;;;;;;1.67;1.30;;;10.20;99.90;10.10;101226.00;;;;4951107;28;112132;-65
2022/10/17 05:25:19;;;;;;;2.10;1.43;;;10.20;99.90;10.10;101229.00;;;;4943430;28;92842;-64
2022/10/17 05:27:45;;;;;;;2.07;1.67;;;10.20;99.90;10.10;101225.00;;;;4942221;28;93072;-64
2022/10/17 05:30:11;;;;;;;1.63;1.53;;;10.20;99.90;10.10;101219.00;;;;4938081;28;122582;-64
2022/10/17 05:32:37;;;;;;;3.17;1.60;;;10.20;99.90;10.10;101231.00;;;;4947449;28;92176;-64
2022/10/17 05:35:04;;;;;;;2.50;1.97;;;10.20;99.90;10.10;101231.00;;;;4951970;28;92990;-64
2022/10/17 05:37:30;;;;;;;2.17;1.57;;;10.20;99.90;10.10;101220.00;;;;4951707;28;94105;-65
2022/10/17 05:39:56;;;;;;;1.90;1.80;;;10.20;99.90;10.10;101237.00;;;;4948165;28;93751;-66
2022/10/17 05:42:23;;;;;;;1.90;1.73;;;10.20;99.90;10.10;101231.00;;;;4948946;28;92954;-64
2022/10/17 05:44:48;;;;;;;2.20;2.00;;;10.20;99.90;10.10;101235.00;;;;4945276;28;92934;-64
2022/10/17 05:47:14;;;;;;;1.90;1.50;;;10.20;99.90;10.10;101227.00;;;;4944803;28;117951;-64
2022/10/17 05:49:40;;;;;;;1.40;1.30;;;10.20;99.90;10.20;101240.00;;;;4939131;28;107446;-64
2022/10/17 05:52:05;;;;;;;2.77;1.87;;;10.20;99.90;10.20;101236.00;;;;4939302;28;110200;-64
2022/10/17 05:54:31;;;;;;;2.03;1.87;;;10.30;99.90;10.30;101235.00;;;;4949448;28;92904;-64
2022/10/17 05:56:57;;;;;;;3.43;2.50;;;10.30;99.90;10.40;101239.00;;;;4952098;28;121470;-64
2022/10/17 05:59:26;;;;;;;3.40;3.10;;;10.40;99.90;10.50;101243.00;;;;4946643;28;114663;-64
2022/10/17 06:01:53;;;;;;;6.90;3.20;;;10.60;99.90;10.70;101252.00;;;;4945417;28;102878;-64
2022/10/17 06:04:19;;;;;;;3.37;2.37;;;10.60;99.90;10.80;101252.00;;;;4951261;28;109162;-64
2022/10/17 06:06:45;;;;;;;4.53;3.20;;;10.60;99.90;11.00;101260.00;;;;4948445;28;93230;-64
2022/10/17 06:09:11;;;;;;;4.10;3.80;;;11.00;99.90;11.20;101256.00;;;;4938477;28;123620;-64
2022/10/17 06:11:37;;;;;;;5.27;4.10;;;11.10;99.90;11.40;101260.00;;;;4948103;28;111038;-64
2022/10/17 06:14:04;;;;;;;5.73;4.27;;;11.30;99.90;11.50;101258.00;;;;4940846;28;110004;-65
2022/10/17 06:16:30;;;;;;;6.37;4.57;;;11.50;99.90;11.80;101265.00;;;;4945827;28;122126;-65
2022/10/17 06:18:55;;;;;;;3.50;3.20;;;11.70;99.90;12.00;101266.00;;;;4950427;28;96979;-64
2022/10/17 06:21:25;;;;;;;6.17;3.13;;;11.90;99.90;12.20;101268.00;;;;4944711;28;109555;-64
2022/10/17 06:23:51;;;;;;;5.03;3.60;;;12.10;99.90;12.40;101278.00;;;;4950785;28;92772;-64
2022/10/17 06:26:17;;;;;;;4.93;3.93;;;12.30;99.90;12.60;101296.00;;;;4945257;28;93533;-64
2022/10/17 06:28:43;;;;;;;8.67;3.97;;;12.50;99.90;12.80;101292.00;;;;4944253;28;93787;-64
2022/10/17 06:31:15;;;;;;;8.13;4.83;;;12.70;99.90;13.00;101287.00;;;;4947495;28;92752;-64
2022/10/17 06:33:41;;;;;;;8.33;4.70;;;13.00;99.90;13.30;101294.00;;;;4950071;28;92874;-64
2022/10/17 06:36:10;;;;;;;7.13;5.17;;;13.20;99.90;13.60;101299.00;;;;4942939;28;93064;-64
2022/10/17 06:38:36;;;;;;;6.70;5.07;;;13.50;99.90;13.80;101301.00;;;;4948945;28;115797;-62
2022/10/17 06:41:13;;;;;;;11.83;6.97;;;13.70;99.90;14.20;101303.00;;;;4948725;28;110401;-62
2022/10/17 06:43:47;;;;;;;10.57;7.47;;;14.10;99.90;14.50;101293.00;;;;4966267;28;98606;-61
2022/10/17 06:46:16;;;;;;;11.30;8.63;;;14.30;99.90;14.80;101302.00;;;;4946614;28;94018;-61
2022/10/17 06:48:42;;;;;;;13.90;9.23;;;14.70;99.90;15.10;101307.00;;;;4943075;28;102493;-61
2022/10/17 06:51:10;;;;;;;8.90;7.97;;;15.00;99.90;15.40;101314.00;;;;4946535;28;101951;-61
2022/10/17 06:53:36;;;;;;;11.15;8.15;;;15.40;99.90;15.80;101310.00;;;;4952617;28;94221;-60
2022/10/17 06:56:03;;;;;;;14.60;10.43;;;15.60;99.90;16.10;101316.00;;;;4943226;28;94189;-60
2022/10/17 06:58:32;;;;;;;11.95;8.68;;;15.90;99.90;16.40;101315.00;;;;4946211;28;93807;-61
2022/10/17 07:01:04;;;;;;;13.20;8.18;;;16.20;99.90;16.70;101320.00;;;;4951466;28;93149;-60
2022/10/17 07:03:30;;;;;;;11.73;9.25;;;16.50;99.90;17.00;101325.00;;;;4947353;28;92586;-61
2022/10/17 07:05:56;;;;;;;14.52;10.57;;;16.80;99.90;17.20;101332.00;;;;4938154;28;100868;-61
2022/10/17 07:08:23;;;;;;;22.08;12.73;;;17.10;99.90;17.40;101338.00;;;;4947428;28;93655;-61
2022/10/17 07:10:49;;;;;;;20.52;10.93;;;17.30;99.90;17.60;101343.00;;;;4942383;28;92068;-61
2022/10/17 07:13:16;;;;;;;13.90;8.77;;;17.40;99.90;17.80;101342.00;;;;4945313;28;103267;-62
2022/10/17 07:15:41;;;;;;;13.57;10.25;;;17.60;99.90;18.00;101343.00;;;;4948582;28;93840;-61
2022/10/17 07:18:07;;;;;;;16.17;11.00;;;17.80;99.90;18.20;101342.00;;;;4946871;28;94113;-61
2022/10/17 07:20:33;;;;;;;13.32;9.52;;;18.10;99.90;18.50;101341.00;;;;4946954;28;108042;-61
2022/10/17 07:22:59;;;;;;;16.38;8.95;;;18.30;99.90;18.60;101348.00;;;;4943926;28;107381;-61
2022/10/17 07:25:25;;;;;;;19.38;9.68;;;18.40;99.90;18.80;101347.00;;;;4944926;28;122875;-61
2022/10/17 07:27:51;;;;;;;13.52;7.68;;;18.60;99.90;19.00;101342.00;;;;4939483;28;93288;-60
2022/10/17 07:30:18;;;;;;;10.93;9.07;;;18.80;99.90;19.20;101356.00;;;;4935813;28;92747;-60
2022/10/17 07:32:44;;;;;;;16.73;8.88;;;19.00;99.90;19.30;101361.00;;;;4947253;28;94468;-61
2022/10/17 07:35:11;;;;;;;9.32;6.65;;;19.10;99.90;19.50;101355.00;;;;4946847;28;108498;-61
2022/10/17 07:37:38;;;;;;;11.30;7.43;;;19.30;99.90;19.70;101359.00;;;;4947810;28;108983;-61
2022/10/17 07:40:06;;;;;;;8.45;6.63;;;19.50;99.90;19.90;101369.00;;;;4944634;28;94111;-60
2022/10/17 07:42:40;;;;;;;9.52;6.10;;;19.70;99.90;19.90;101375.00;;;;4950572;28;93871;-61
2022/10/17 07:45:06;;;;;;;13.30;7.75;;;19.80;99.90;19.90;101364.00;;;;4947400;28;98137;-59
2022/10/17 07:47:34;;;;;;;11.85;6.65;;;19.80;99.90;19.90;101370.00;;;;4942708;28;93563;-60
2022/10/17 07:50:01;;;;;;;12.15;7.28;;;19.80;99.90;20.00;101363.00;;;;4945648;28;92870;-61
2022/10/17 07:52:27;;;;;;;11.02;7.00;;;19.90;99.90;20.10;101375.00;;;;4943311;28;93055;-61
2022/10/17 07:54:52;;;;;;;8.48;6.38;;;19.90;99.90;20.10;101377.00;;;;4947687;28;122020;-60
2022/10/17 07:57:18;;;;;;;9.00;7.40;;;20.00;99.90;20.20;101377.00;;;;4947537;28;122653;-61
2022/10/17 07:59:44;;;;;;;9.45;6.75;;;20.00;99.90;20.30;101382.00;;;;4948248;28;109848;-60
2022/10/17 08:02:36;;;;;;;8.35;6.25;;;20.10;99.90;20.40;101384.00;;;;4944580;28;92988;-61
2022/10/17 08:05:01;;;;;;;12.93;6.85;;;20.20;99.90;20.50;101374.00;;;;4945425;28;123035;-60
2022/10/17 08:07:29;;;;;;;7.70;5.97;;;20.40;99.90;20.70;101388.00;;;;4941239;28;122748;-60
2022/10/17 08:09:54;;;;;;;8.95;6.03;;;20.50;99.90;20.80;101381.00;;;;4945394;28;108850;-61
2022/10/17 08:12:20;;;;;;;8.98;6.00;;;20.60;99.90;20.90;101379.00;;;;4950319;28;107838;-61
2022/10/17 08:14:47;;;;;;;12.20;6.85;;;20.70;99.90;21.00;101386.00;;;;4944469;28;94179;-60
2022/10/17 08:17:12;;;;;;;13.65;6.07;;;20.60;99.90;21.10;101382.00;;;;4945057;28;93962;-62
2022/10/17 08:19:39;;;;;;;12.63;7.35;;;20.90;99.90;21.10;101383.00;;;;4952277;28;92786;-60
2022/10/17 08:22:06;;;;;;;10.98;6.55;;;20.90;99.90;21.20;101379.00;;;;4948647;28;92966;-61
2022/10/17 08:24:31;;;;;;;7.93;6.18;;;21.00;99.90;21.40;101389.00;;;;4943438;28;92791;-60
2022/10/17 08:26:59;;;;;;;7.00;6.30;;;21.10;99.90;21.50;101381.00;;;;4951109;28;113676;-61
2022/10/17 08:29:25;;;;;;;13.18;7.85;;;21.20;99.90;21.60;101389.00;;;;4945336;28;92937;-61
2022/10/17 08:31:51;;;;;;;11.38;7.93;;;21.40;99.90;21.70;101389.00;;;;4950452;28;100279;-61
2022/10/17 08:34:17;;;;;;;8.77;6.95;;;21.50;99.90;21.70;101394.00;;;;4952817;28;94015;-61
2022/10/17 08:36:43;;;;;;;8.10;6.97;;;21.60;99.90;21.80;101398.00;;;;4946302;28;92990;-60
2022/10/17 08:39:08;;;;;;;10.85;6.90;;;21.60;99.90;21.80;101396.00;;;;4950978;28;103338;-60
2022/10/17 08:41:56;;;;;;;10.73;5.65;;;21.60;99.90;21.70;101393.00;;;;4952797;28;92809;-61
2022/10/17 08:44:50;;;;;;;12.05;5.88;;;21.60;99.90;21.60;101391.00;;;;4949108;28;92775;-61
2022/10/17 08:47:25;;;;;;;7.50;5.38;;;21.50;99.90;21.60;101393.00;;;;4951821;28;114407;-61
2022/10/17 08:49:58;;;;;;;12.70;5.20;;;21.40;99.90;21.50;101402.00;;;;4950320;28;100555;-59
2022/10/17 08:52:44;;;;;;;10.88;6.15;;;21.40;99.90;21.40;101396.00;;;;4953109;28;92748;-61
2022/10/17 08:55:22;;;;;;;7.05;4.78;;;21.30;99.90;21.50;101393.00;;;;4955489;28;114605;-61
2022/10/17 08:57:48;;;;;;;9.32;6.30;;;21.30;99.90;21.60;101396.00;;;;4951072;28;113288;-61
2022/10/17 09:00:18;;;;;;;7.88;5.70;;;21.40;99.90;21.80;101404.00;;;;4948633;28;92716;-61
2022/10/17 09:02:59;;;;;;;9.23;6.07;;;21.50;99.90;22.00;101403.00;;;;4954868;28;92878;-60
2022/10/17 09:05:40;;;;;;;8.10;5.22;;;21.70;99.90;22.10;101402.00;;;;4954536;28;94111;-61
2022/10/17 09:08:30;;;;;;;9.95;6.55;;;21.80;99.90;22.20;101396.00;;;;4966199;28;112705;-61
2022/10/17 09:11:21;;;;;;;7.82;5.35;;;22.00;99.90;22.10;101394.00;;;;4941096;28;93001;-60
2022/10/17 09:14:08;;;;;;;8.18;4.95;;;21.90;99.90;21.90;101394.00;;;;4947385;28;97449;-61
2022/10/17 09:17:00;;;;;;;9.75;5.30;;;21.80;99.90;21.70;101392.00;;;;4949073;28;92887;-61
2022/10/17 09:19:40;;;;;;;6.40;5.20;;;21.60;99.90;21.50;101384.00;;;;4950295;28;92917;-61
2022/10/17 09:22:14;;;;;;;9.85;6.50;;;21.50;99.90;21.40;101377.00;;;;4966439;28;92996;-61
2022/10/17 09:25:02;;;;;;;7.97;5.28;;;21.30;99.90;21.50;101383.00;;;;4944876;28;101458;-61
2022/10/17 09:27:46;;;;;;;7.70;5.63;;;21.30;99.90;21.80;101384.00;;;;4943132;28;94443;-60
2022/10/17 09:30:46;;;;;;;6.88;5.22;;;21.50;99.90;22.20;101380.00;;;;4952241;28;92961;-59
2022/10/17 09:33:20;;;;;;;7.95;5.32;;;21.80;99.90;22.60;101381.00;;;;4945579;28;93545;-61
2022/10/17 09:35:47;;;;;;;7.38;5.55;;;22.10;99.90;23.00;101380.00;;;;4948575;28;92954;-62
2022/10/17 09:38:20;;;;;;;8.68;6.07;;;22.50;99.90;23.40;101387.00;;;;4951844;28;93624;-60
2022/10/17 09:40:57;;;;;;;8.13;5.65;;;22.90;99.30;23.90;101384.00;;;;4946245;28;93783;-60
2022/10/17 09:43:23;;;;;;;6.38;4.95;;;23.40;98.30;24.20;101380.00;;;;4950439;28;104389;-61
2022/10/17 09:46:07;;;;;;;8.57;5.47;;;23.80;96.30;24.50;101377.00;;;;4950143;28;92875;-60
2022/10/17 09:48:45;;;;;;;7.43;4.45;;;24.10;95.10;24.60;101379.00;;;;4947558;28;94230;-60
2022/10/17 09:51:12;;;;;;;7.15;5.22;;;24.20;93.40;24.80;101383.00;;;;4952547;28;93710;-61
2022/10/17 09:53:41;;;;;;;8.43;5.40;;;24.40;91.90;24.90;101373.00;;;;4951799;28;92709;-61
2022/10/17 09:56:15;;;;;;;7.75;5.32;;;24.60;90.80;25.00;101377.00;;;;4952775;28;93207;-60
2022/10/17 09:58:42;;;;;;;5.22;3.97;;;24.70;90.00;25.20;101372.00;;;;4948665;28;94129;-61
2022/10/17 10:01:21;;;;;;;6.30;4.70;;;24.80;89.50;25.30;101383.00;;;;4949711;28;93610;-60
2022/10/17 10:04:07;;;;;;;5.75;4.05;;;24.90;86.90;25.50;101388.00;;;;4952150;28;92952;-61
2022/10/17 10:06:34;;;;;;;6.90;4.40;;;25.10;86.30;25.70;101396.00;;;;4950315;28;92810;-60
2022/10/17 10:09:03;;;;;;;7.07;5.18;;;25.30;85.90;25.90;101390.00;;;;4948981;28;115579;-60
2022/10/17 10:11:57;;;;;;;7.20;4.70;;;25.50;83.20;26.10;101398.00;;;;4946036;28;93121;-60
2022/10/17 10:14:27;;;;;;;4.80;3.65;;;25.70;83.20;26.40;101406.00;;;;4949834;28;92767;-61
2022/10/17 10:16:52;;;;;;;7.35;4.45;;;26.00;82.10;26.60;101406.00;;;;4946687;28;93945;-61
2022/10/17 10:19:36;;;;;;;8.18;4.20;;;26.20;77.80;26.60;101409.00;;;;4947182;28;124068;-61
2022/10/17 10:22:15;;;;;;;5.03;3.88;;;26.20;76.70;26.80;101410.00;;;;4950524;28;92960;-61
2022/10/17 10:24:41;;;;;;;4.60;3.35;;;26.40;75.40;26.90;101410.00;;;;4943051;28;93047;-61
2022/10/17 10:27:15;;;;;;;5.40;4.05;;;26.50;72.00;26.90;101406.00;;;;4943527;28;92969;-60
2022/10/17 10:29:48;;;;;;;4.63;3.90;;;26.60;71.70;26.90;101407.00;;;;4955504;28;98431;-60
2022/10/17 10:32:28;;;;;;;4.65;3.72;;;26.60;69.30;26.90;101401.00;;;;4945626;28;116248;-60
2022/10/17 10:35:17;;;;;;;9.00;3.75;;;26.60;69.20;27.10;101394.00;;;;4952815;28;92545;-62
2022/10/17 10:37:48;;;;;;;3.17;2.90;;;26.70;69.60;27.40;101395.00;;;;4965847;28;92745;-60
2022/10/17 10:40:24;;;;;;;4.57;3.28;;;27.00;70.20;27.70;101402.00;;;;4948322;28;113684;-62
2022/10/17 10:42:54;;;;;;;6.82;3.33;;;27.20;67.30;27.80;101400.00;;;;4949804;28;103691;-62
2022/10/17 10:45:38;;;;;;;5.32;3.25;;;27.40;65.40;27.90;101397.00;;;;4943676;28;92985;-62
2022/10/17 10:48:31;;;;;;;8.70;3.60;;;27.50;63.90;28.00;101399.00;;;;4943046;28;92948;-61
2022/10/17 10:51:05;;;;;;;6.43;4.60;;;27.60;63.40;28.10;101396.00;;;;4949656;28;93910;-62
2022/10/17 10:53:49;;;;;;;4.85;3.75;;;27.70;63.40;28.20;101393.00;;;;4950471;28;114841;-61
2022/10/17 10:56:37;;;;;;;5.78;3.75;;;27.80;59.80;28.00;101393.00;;;;4951787;28;94483;-61
2022/10/17 10:59:28;;;;;;;6.60;4.03;;;27.80;58.90;28.10;101396.00;;;;4965512;28;93184;-62
2022/10/17 11:02:09;;;;;;;3.88;3.20;;;27.80;59.90;28.10;101390.00;;;;4962353;28;112313;-61
2022/10/17 11:04:49;;;;;;;4.00;3.05;;;27.80;59.00;28.10;101390.00;;;;4960645;28;92967;-61